Overview Statistics Trail Chart Weather Telemetry Raw packets
 

This is the latest recevied weather packets stored in our database for station/object PP5CI-13. If no packets are shown the sender has not sent any weather packets the latest 10 day(s).

<< 13 14 15 16 17 18 19 >>
Time Temp. Humidity Pressure Rain* Wind** Luminosity Snow
1788452720 26.67° C 63% 1015.2 hPa 0 mm - - -
1788452120 27.78° C 61% 1015.2 hPa 0 mm - - -
1788451525 26.67° C 64% 1015.2 hPa 0 mm - - -
1788450920 27.22° C 62% 1015.2 hPa 0 mm - - -
1788450320 31.11° C 52% 1015.2 hPa 0 mm - - -
1788449720 35° C 44% 1016.2 hPa 0 mm - - -
1788449120 34.44° C 44% 1016.2 hPa 0 mm - - -
1788448520 33.33° C 45% 1016.2 hPa 0 mm - - -
1788447921 33.33° C 46% 1016.2 hPa 0 mm - - -
1788447320 32.22° C 49% 1016.2 hPa 0 mm - - -
1788446721 29.44° C 54% 1016.2 hPa 0 mm - - -
1788446120 31.67° C 51% 1017.2 hPa 0 mm - - -
1788445520 33.33° C 48% 1017.2 hPa 0 mm - - -
1788444920 30.56° C 54% 1017.2 hPa 0 mm - - -
1788444320 30° C 55% - 0 mm - - -
1788443720 29.44° C 57% - 0 mm - - -
1788443120 27.78° C 61% - 0 mm - - -
1788442520 28.33° C 61% - 0 mm - - -
1788441920 27.22° C 64% - 0 mm - - -
1788441320 26.67° C 66% - 0 mm - - -
1788440720 25.56° C 68% 1018.2 hPa 0 mm - - -
1788440121 25° C 71% 1018.2 hPa 0 mm - - -
1788439520 23.89° C 75% 1018.2 hPa 0 mm - - -
1788438920 22.78° C 77% 1018.2 hPa 0 mm - - -
1788438320 23.33° C 75% 1018.2 hPa 0 mm - - -

* Rain latest hour (hover to see other rain measurements)
** Current wind speed in m/s (hover to see current wind gust speed)